Andrew, Iowa
Current Conditions -  °F | °C
As of 9:53 AM on Thursday 30 Oct 2014 (Local Time) from KDBQ Reporting Station
Overcast Overcast  
Wind Chill: 38°   Ceiling: 8000
Heat Index: 41°   Visibility: 10mi
Dew Point: 37°   Wind: 5mph
Humidity: 86%   Direction: 200°SSW
Pressure: 30.09"   Gusts: NA
Location:  42.15°N, 90.59°W
Report Text: KDBQ 301453Z 20004KT 10SM OVC080 05/03 A3009 RMK AO2 SLP201 T00500028 50001
Loading
Personal Weather Stations






























Interactive Weather Map
Tropical Storm Tracking
New forecast layout! Learn more

10-Day Weather Forecast

Advertisements
Track Severe Weather on mobile